Time;durP1;ratioP1;P1;durP2;ratioP2;P2;SDS_P1;SDS_P2;PMS_P1;PMS_P2;Temp;Humidity;BMP_temperature;BMP_pressure;BME280_temperature;BME280_humidity;BME280_pressure;Samples;Min_cycle;Max_cycle;Signal;HPM_P1;HPM_P2
2022/08/11 00:01:34;;;;;;;25.33;19.00;;;;;;;32.52;75.26;97332.81;4959866;28;20062;-70
2022/08/11 00:04:25;;;;;;;25.42;17.55;;;;;;;32.54;74.89;97349.06;4958850;28;20288;-67
2022/08/11 00:07:17;;;;;;;22.02;17.88;;;;;;;32.49;75.12;97358.59;4986281;28;20054;-69
2022/08/11 00:10:17;;;;;;;24.23;18.40;;;;;;;32.40;75.26;97363.72;4989795;28;20042;-69
2022/08/11 00:12:56;;;;;;;23.15;17.27;;;;;;;32.44;75.05;97361.72;4989830;28;20061;-70
2022/08/11 00:15:51;;;;;;;24.67;19.20;;;;;;;32.43;74.88;97365.72;4990503;28;20054;-69
2022/08/11 00:18:28;;;;;;;23.67;18.45;;;;;;;32.41;74.80;97376.41;4974135;28;20701;-70
2022/08/11 00:21:26;;;;;;;21.73;17.77;;;;;;;32.39;74.77;97382.38;4990026;28;20128;-70
2022/08/11 00:24:39;;;;;;;23.17;18.10;;;;;;;32.42;74.92;97391.88;4976447;28;20299;-70
2022/08/11 00:27:44;;;;;;;24.80;18.50;;;;;;;32.47;74.55;97410.94;4988933;28;20500;-70
2022/08/11 00:30:38;;;;;;;25.73;18.38;;;;;;;32.48;74.65;97423.63;4984673;28;20039;-70
2022/08/11 00:33:30;;;;;;;26.63;18.08;;;;;;;32.46;74.59;97434.34;4939716;28;20044;-71
2022/08/11 00:36:50;;;;;;;22.73;18.10;;;;;;;32.53;74.59;97445.47;4938251;28;20058;-70
2022/08/11 00:39:42;;;;;;;24.33;18.17;;;;;;;32.52;74.43;97454.19;4949296;29;20047;-71
2022/08/11 00:42:42;;;;;;;29.58;20.02;;;;;;;32.54;74.55;97472.09;4949467;29;20057;-71
2022/08/11 00:45:51;;;;;;;25.55;18.75;;;;;;;32.56;74.41;97480.84;4949286;29;20062;-72
2022/08/11 00:49:05;;;;;;;25.35;18.85;;;;;;;32.49;74.48;97485.53;4969616;28;20054;-71
2022/08/11 00:52:12;;;;;;;25.65;20.30;;;;;;;32.64;74.19;97489.22;4968683;28;20049;-70
2022/08/11 00:55:09;;;;;;;29.88;20.27;;;;;;;32.57;74.55;97507.41;4968395;28;20545;-68
2022/08/11 00:58:06;;;;;;;30.80;21.23;;;;;;;32.52;74.91;97512.53;4968388;28;20049;-70
2022/08/11 01:01:25;;;;;;;27.35;21.02;;;;;;;32.40;75.29;97513.66;4968280;28;20043;-70
2022/08/11 01:04:48;;;;;;;28.17;21.23;;;;;;;32.43;75.73;97510.13;4950751;28;20113;-68
2022/08/11 01:08:13;;;;;;;28.20;21.52;;;;;;;32.19;76.36;97517.09;4968271;28;20134;-67
2022/08/11 01:11:51;;;;;;;28.60;21.70;;;;;;;32.43;75.72;97517.63;4936773;29;20058;-71
2022/08/11 01:14:58;;;;;;;29.33;23.25;;;;;;;32.27;76.20;97510.41;4948440;29;20067;-71
2022/08/11 01:17:46;;;;;;;35.20;23.05;;;;;;;32.25;76.45;97514.75;4946184;28;20051;-68
2022/08/11 01:21:06;;;;;;;32.28;22.90;;;;;;;32.34;76.16;97507.66;4968685;28;20105;-67
2022/08/11 01:24:51;;;;;;;28.23;22.05;;;;;;;32.49;75.86;97503.00;4967290;28;20043;-69
2022/08/11 01:28:10;;;;;;;30.38;22.77;;;;;;;32.52;75.63;97505.00;4967365;28;20061;-69
2022/08/11 01:31:26;;;;;;;30.70;22.83;;;;;;;32.51;75.45;97506.19;4967975;28;20043;-69
2022/08/11 01:34:49;;;;;;;30.42;22.65;;;;;;;32.53;75.33;97494.69;4967194;28;20057;-70
2022/08/11 01:38:15;;;;;;;37.30;23.08;;;;;;;32.56;75.37;97508.63;4983009;28;20046;-69
2022/08/11 01:44:36;;;;;;;30.10;22.88;;;;;;;32.60;75.26;97505.03;4987216;28;20046;-68
2022/08/11 01:44:39;;;;;;;28.90;21.55;;;;;;;32.58;75.12;97502.69;4979581;28;20047;-68
2022/08/11 01:48:01;;;;;;;27.52;21.13;;;;;;;32.63;74.87;97499.50;4967250;28;20108;-69
2022/08/11 01:50:56;;;;;;;28.58;21.83;;;;;;;32.65;75.08;97510.22;4967411;28;20057;-70
2022/08/11 01:54:02;;;;;;;29.45;21.45;;;;;;;32.78;74.43;97508.69;4931402;29;20077;-69
2022/08/11 01:57:09;;;;;;;27.35;20.77;;;;;;;32.83;74.16;97513.88;4948087;29;20110;-70
2022/08/11 02:00:24;;;;;;;25.15;20.83;;;;;;;32.88;74.14;97512.69;4948081;29;20051;-69
2022/08/11 02:03:38;;;;;;;27.58;20.50;;;;;;;32.95;73.88;97523.84;4938769;29;20051;-69
2022/08/11 02:14:13;;;;;;;21.50;17.98;;;;;;;32.93;72.42;97532.56;4966897;28;20051;-69
2022/08/11 02:17:26;;;;;;;28.17;18.38;;;;;;;33.02;71.92;97540.56;4966811;28;20545;-69
2022/08/11 02:23:48;;;;;;;25.38;17.90;;;;;;;33.03;71.44;97563.56;4927723;29;20052;-70
2022/08/11 02:26:55;;;;;;;22.90;17.52;;;;;;;33.06;71.77;97562.81;4928642;29;20543;-70
2022/08/11 02:29:44;;;;;;;22.80;16.65;;;;;;;33.05;71.34;97569.53;4935827;28;20121;-69
2022/08/11 02:36:00;;;;;;;25.25;18.10;;;;;;;33.07;70.66;97575.50;4947560;28;20051;-67
2022/08/11 02:39:06;;;;;;;22.60;17.67;;;;;;;33.46;69.86;97574.81;4928138;29;20051;-70
2022/08/11 02:42:24;;;;;;;20.60;16.63;;;;;;;33.77;69.11;97581.69;4955930;28;20050;-70
2022/08/11 02:45:46;;;;;;;22.80;16.98;;;;;;;34.00;67.56;97584.06;4949468;28;20570;-71
2022/08/11 02:52:25;;;;;;;22.15;15.18;;;;;;;33.97;67.47;97598.78;4957002;28;20055;-70
2022/08/11 02:55:35;;;;;;;22.45;16.50;;;;;;;33.39;68.33;97591.53;4962738;28;20051;-71
2022/08/11 03:02:26;;;;;;;20.27;14.35;;;;;;;33.59;67.80;97595.53;4948385;29;20051;-69
2022/08/11 03:05:23;;;;;;;20.33;14.18;;;;;;;33.73;67.59;97584.44;4929213;29;20539;-70
2022/08/11 03:08:31;;;;;;;17.73;14.02;;;;;;;33.83;66.99;97587.66;4928147;29;20440;-70
2022/08/11 03:18:32;;;;;;;18.23;11.85;;;;;;;33.99;66.09;97593.59;4934678;28;20144;-70
2022/08/11 03:21:42;;;;;;;16.20;11.90;;;;;;;34.02;65.95;97601.16;4934481;28;20059;-71
2022/08/11 03:24:45;;;;;;;14.80;12.07;;;;;;;33.48;66.88;97606.63;4946930;29;20047;-72
2022/08/11 03:28:06;;;;;;;24.88;11.95;;;;;;;33.42;66.68;97608.22;4950810;28;20058;-69
2022/08/11 03:31:25;;;;;;;18.60;10.88;;;;;;;33.51;66.13;97616.19;4966179;28;20046;-70
2022/08/11 03:34:19;;;;;;;16.00;10.32;;;;;;;33.74;65.40;97619.44;4970772;28;20145;-73
2022/08/11 03:44:52;;;;;;;13.38;9.07;;;;;;;33.20;65.73;97667.72;4977722;28;20057;-71
2022/08/11 03:48:09;;;;;;;15.52;8.18;;;;;;;33.26;65.56;97664.16;4973747;28;20710;-71
2022/08/11 03:51:07;;;;;;;10.45;7.20;;;;;;;33.47;65.59;97666.22;4969904;28;20129;-71
2022/08/11 03:54:25;;;;;;;12.15;6.93;;;;;;;33.51;64.15;97666.25;4984232;28;20783;-71
2022/08/11 03:57:35;;;;;;;11.30;6.20;;;;;;;33.38;64.37;97676.13;4988175;28;20491;-70
2022/08/11 04:00:42;;;;;;;12.45;6.65;;;;;;;33.42;63.81;97668.59;4982239;28;20429;-70
2022/08/11 04:03:56;;;;;;;11.98;6.80;;;;;;;33.67;63.88;97668.69;4967677;28;20058;-72
2022/08/11 04:07:13;;;;;;;12.85;6.43;;;;;;;33.53;64.47;97661.91;4968704;28;20130;-70
2022/08/11 04:10:23;;;;;;;12.73;7.13;;;;;;;33.70;63.82;97657.56;4969174;28;20051;-70
2022/08/11 04:13:42;;;;;;;11.57;6.32;;;;;;;33.40;64.46;97651.50;4969371;28;20045;-69
2022/08/11 04:17:09;;;;;;;12.70;5.93;;;;;;;33.01;65.09;97654.91;4969512;28;20457;-69
2022/08/11 04:20:06;;;;;;;11.90;6.82;;;;;;;33.44;64.45;97649.53;4941591;28;20042;-70
2022/08/11 04:23:38;;;;;;;11.18;6.70;;;;;;;33.31;64.41;97658.22;4987032;28;20112;-70
2022/08/11 04:27:16;;;;;;;13.95;6.35;;;;;;;33.62;63.60;97644.81;4988252;28;20474;-69
2022/08/11 04:30:33;;;;;;;15.98;6.75;;;;;;;33.10;65.37;97656.16;4987542;28;20518;-70
2022/08/11 04:33:36;;;;;;;19.52;6.57;;;;;;;33.20;64.37;97657.38;4976948;28;20057;-70
2022/08/11 04:40:36;;;;;;;15.10;7.53;;;;;;;33.58;64.76;97674.63;4971724;28;20354;-70
2022/08/11 04:43:59;;;;;;;18.55;8.00;;;;;;;33.74;64.73;97688.19;4943367;28;20050;-71
2022/08/11 05:01:39;;;;;;;10.70;7.25;;;;;;;33.67;64.95;97691.78;4975034;28;20490;-71
2022/08/11 05:01:41;;;;;;;9.90;7.32;;;;;;;33.68;66.16;97723.16;4972701;28;20149;-70
2022/08/11 05:07:53;;;;;;;13.05;8.60;;;;;;;33.65;65.49;97724.75;4979700;28;20050;-72
2022/08/11 05:10:51;;;;;;;17.33;8.48;;;;;;;33.57;65.92;97725.88;4975492;28;20058;-70
2022/08/11 05:36:40;;;;;;;11.50;6.93;;;;;;;33.35;65.26;97739.69;4980985;28;20129;-71
2022/08/11 05:58:45;;;;;;;13.07;7.30;;;;;;;32.89;67.48;97739.41;4948122;28;20943;-73
2022/08/11 06:01:38;;;;;;;8.95;6.28;;;;;;;32.69;67.47;97734.06;4972816;28;20117;-71
2022/08/11 06:04:28;;;;;;;8.68;5.60;;;;;;;33.29;66.20;97727.34;4986422;28;20419;-70
2022/08/11 06:07:17;;;;;;;10.55;5.38;;;;;;;33.37;65.12;97721.84;4987011;28;20552;-69
2022/08/11 06:10:14;;;;;;;10.63;4.93;;;;;;;33.64;64.65;97737.06;4986184;28;20050;-69
2022/08/11 06:12:54;;;;;;;7.47;4.07;;;;;;;33.47;63.75;97732.19;4963635;28;20118;-72
2022/08/11 06:15:48;;;;;;;9.57;4.43;;;;;;;33.70;64.17;97727.13;4946213;29;20054;-69
2022/08/11 06:18:32;;;;;;;10.82;4.18;;;;;;;33.12;63.96;97716.94;4971843;28;20042;-69
2022/08/11 06:21:22;;;;;;;11.10;4.07;;;;;;;33.76;62.62;97715.63;4964969;28;20125;-71
2022/08/11 06:24:06;;;;;;;9.13;3.35;;;;;;;32.55;65.43;97726.41;4974299;28;20651;-70
2022/08/11 06:26:56;;;;;;;7.32;3.38;;;;;;;33.50;64.23;97720.31;4974766;28;20201;-72
2022/08/11 06:29:57;;;;;;;13.13;3.42;;;;;;;32.67;63.93;97721.75;4962399;28;20135;-71
2022/08/11 06:32:43;;;;;;;18.20;3.65;;;;;;;33.30;62.72;97714.25;4973142;28;20569;-72
2022/08/11 06:35:52;;;;;;;6.35;2.83;;;;;;;33.19;62.36;97714.19;4978643;28;20129;-71
2022/08/11 06:38:51;;;;;;;6.20;3.40;;;;;;;33.91;60.25;97701.34;4984138;28;20061;-71
2022/08/11 06:41:52;;;;;;;4.00;2.67;;;;;;;33.54;62.32;97699.63;4984558;28;20047;-70
2022/08/11 06:45:03;;;;;;;4.95;3.20;;;;;;;34.45;59.78;97698.69;4955235;28;20062;-71
2022/08/11 06:47:54;;;;;;;8.18;3.40;;;;;;;34.68;58.36;97703.03;4969029;28;20545;-70
2022/08/11 06:53:50;;;;;;;6.53;2.97;;;;;;;33.09;60.79;97696.22;4979066;28;20112;-70
2022/08/11 07:00:28;;;;;;;5.10;2.97;;;;;;;33.43;59.69;97684.09;4930276;29;20051;-72
2022/08/11 07:03:18;;;;;;;5.47;2.67;;;;;;;33.51;58.82;97697.63;4928324;29;20069;-71
2022/08/11 07:06:29;;;;;;;7.38;3.10;;;;;;;34.02;59.08;97687.47;4941351;29;20134;-71
2022/08/11 07:16:30;;;;;;;6.45;3.97;;;;;;;33.81;60.01;97695.78;4986817;28;20061;-71
2022/08/11 07:29:01;;;;;;;7.53;3.85;;;;;;;33.49;59.45;97690.88;4969675;28;20348;-70
2022/08/11 07:32:02;;;;;;;9.77;3.95;;;;;;;33.67;59.82;97700.13;4965133;28;20043;-71
2022/08/11 07:34:44;;;;;;;12.45;3.72;;;;;;;33.80;58.94;97710.88;4976585;28;20374;-70
2022/08/11 07:37:34;;;;;;;12.00;4.20;;;;;;;33.67;60.24;97713.22;4986650;28;20132;-71
2022/08/11 07:40:18;;;;;;;7.47;3.97;;;;;;;32.99;62.19;97723.97;4986855;28;20046;-71
2022/08/11 07:43:07;;;;;;;6.40;3.38;;;;;;;32.88;63.31;97723.91;4987862;28;20064;-71
2022/08/11 07:52:32;;;;;;;6.05;2.65;;;;;;;33.29;62.18;97716.22;4968057;28;20074;-71
2022/08/11 07:55:16;;;;;;;5.80;2.95;;;;;;;33.68;60.87;97721.16;4987599;28;20089;-70
2022/08/11 08:19:57;;;;;;;5.18;3.20;;;;;;;33.19;61.33;97702.25;4968347;28;20109;-69
2022/08/11 08:22:47;;;;;;;4.43;2.63;;;;;;;33.27;61.29;97701.91;4985971;28;20133;-71
2022/08/11 08:25:47;;;;;;;5.35;2.70;;;;;;;33.17;61.27;97719.31;4970238;28;20134;-71
2022/08/11 08:28:22;;;;;;;7.18;3.05;;;;;;;33.08;61.89;97725.22;4967722;28;20054;-71
2022/08/11 08:31:12;;;;;;;3.83;2.80;;;;;;;33.34;61.63;97731.72;4968567;28;20113;-70
2022/08/11 08:33:55;;;;;;;7.05;2.88;;;;;;;33.60;61.23;97732.66;4954332;28;20041;-71
2022/08/11 08:36:54;;;;;;;6.22;3.10;;;;;;;32.84;62.74;97746.09;4970872;28;20043;-71
2022/08/11 08:39:33;;;;;;;6.05;3.30;;;;;;;32.63;63.20;97745.94;4987544;28;20116;-70
2022/08/11 08:42:30;;;;;;;7.25;3.05;;;;;;;32.39;63.73;97750.88;4987862;28;20058;-69
2022/08/11 08:45:26;;;;;;;6.73;3.23;;;;;;;32.64;63.50;97758.66;4986736;28;20157;-71
2022/08/11 08:48:15;;;;;;;7.85;2.95;;;;;;;32.12;64.55;97753.78;4987751;28;20279;-68
2022/08/11 08:54:41;;;;;;;10.05;3.30;;;;;;;32.18;63.80;97760.59;4987449;28;20057;-71
2022/08/11 08:57:34;;;;;;;4.97;3.00;;;;;;;32.07;64.25;97758.88;4971498;28;20610;-72
2022/08/11 09:00:20;;;;;;;5.88;2.97;;;;;;;31.84;64.87;97764.56;4968167;28;20058;-70
2022/08/11 09:03:09;;;;;;;14.13;4.95;;;;;;;32.10;64.25;97769.22;4970402;28;20053;-71
2022/08/11 09:06:15;;;;;;;7.57;3.25;;;;;;;31.82;65.08;97772.47;4983203;28;20058;-70
2022/08/11 09:09:07;;;;;;;7.57;3.47;;;;;;;31.33;66.28;97769.41;4971374;28;20631;-69
2022/08/11 09:11:52;;;;;;;5.65;3.10;;;;;;;31.87;65.11;97774.88;4987600;28;20441;-70
2022/08/11 09:14:59;;;;;;;8.32;3.10;;;;;;;31.86;65.46;97771.31;4987468;28;20050;-71
2022/08/11 09:17:45;;;;;;;7.82;3.53;;;;;;;31.27;66.66;97767.38;4988042;28;20049;-70
2022/08/11 09:20:37;;;;;;;10.55;4.13;;;;;;;31.22;66.26;97765.69;4970291;28;20089;-72
2022/08/11 09:27:01;;;;;;;7.13;3.53;;;;;;;32.14;64.44;97770.88;4968373;28;20090;-69
2022/08/11 09:29:38;;;;;;;7.47;3.63;;;;;;;31.04;66.44;97768.22;4968457;28;20043;-70
2022/08/11 09:32:30;;;;;;;6.40;3.50;;;;;;;31.20;66.08;97768.03;4967891;28;20545;-70
2022/08/11 09:35:13;;;;;;;7.50;3.90;;;;;;;31.47;65.05;97770.81;4968518;28;20046;-70
2022/08/11 09:41:08;;;;;;;10.35;3.55;;;;;;;31.25;67.75;97775.25;4929214;29;20122;-71
2022/08/11 09:47:00;;;;;;;8.85;3.90;;;;;;;31.17;68.84;97782.66;4939717;29;20046;-71
2022/08/11 09:49:52;;;;;;;6.22;3.42;;;;;;;31.24;68.06;97771.66;4948378;29;20117;-70
2022/08/11 09:52:42;;;;;;;6.20;3.33;;;;;;;31.10;68.57;97772.25;4950363;28;20063;-70
2022/08/11 09:55:59;;;;;;;10.20;3.33;;;;;;;31.30;68.37;97772.13;4953426;28;20643;-70
2022/08/11 09:58:35;;;;;;;7.70;3.40;;;;;;;31.47;68.06;97770.81;4943440;29;20728;-72
2022/08/11 10:01:29;;;;;;;7.55;3.25;;;;;;;31.72;66.97;97771.94;4947775;29;20353;-72
2022/08/11 10:04:46;;;;;;;6.25;3.92;;;;;;;31.05;69.22;97769.00;4947749;29;20110;-71
2022/08/11 10:07:28;;;;;;;5.28;3.10;;;;;;;31.16;68.61;97773.53;4929281;29;20055;-70
2022/08/11 10:10:21;;;;;;;4.43;3.05;;;;;;;31.15;69.09;97780.25;4928200;29;20535;-70
2022/08/11 10:13:08;;;;;;;9.88;3.60;;;;;;;30.61;70.64;97786.88;4932282;28;20557;-70
2022/08/11 10:16:17;;;;;;;6.63;3.42;;;;;;;30.53;70.34;97788.75;4948373;28;20157;-70
2022/08/11 10:19:08;;;;;;;6.55;3.13;;;;;;;31.19;68.66;97792.19;4944646;29;20114;-70
2022/08/11 10:28:30;;;;;;;6.35;2.92;;;;;;;30.35;70.78;97795.94;4974268;28;20058;-71
2022/08/11 10:34:46;;;;;;;3.28;2.40;;;;;;;29.92;72.25;97806.16;4974621;28;20489;-70
2022/08/11 10:37:39;;;;;;;7.50;3.05;;;;;;;30.25;70.70;97792.56;4988175;28;20050;-70
2022/08/11 10:40:45;;;;;;;5.67;2.53;;;;;;;30.13;71.48;97784.44;4978610;28;20109;-72
2022/08/11 10:43:34;;;;;;;4.05;1.98;;;;;;;30.27;70.80;97761.78;4970525;28;20284;-70
2022/08/11 10:59:16;;;;;;;3.42;1.90;;;;;;;30.37;71.40;97624.75;4968736;28;20047;-70
2022/08/11 11:02:06;;;;;;;3.05;2.22;;;;;;;30.81;69.79;97640.81;4961446;28;20045;-72
2022/08/11 11:05:01;;;;;;;5.40;2.13;;;;;;;30.70;69.70;97643.44;4976737;28;20046;-71
2022/08/11 11:08:51;;;;;;;6.25;2.42;;;;;;;30.69;69.98;97639.06;4947557;29;20106;-71
2022/08/11 11:11:11;;;;;;;6.40;2.30;;;;;;;30.31;70.73;97626.22;4948513;28;20118;-72
2022/08/11 11:20:08;;;;;;;4.57;2.08;;;;;;;30.88;69.09;97593.81;4963908;28;20038;-70
2022/08/11 11:23:33;;;;;;;7.30;2.20;;;;;;;31.18;67.92;97588.28;4964725;28;20050;-69
2022/08/11 11:27:11;;;;;;;6.55;2.25;;;;;;;31.15;68.62;97588.25;4964423;28;20055;-69
2022/08/11 11:30:09;;;;;;;3.80;2.00;;;;;;;31.02;67.98;97582.94;4964248;28;20054;-69
2022/08/11 11:33:18;;;;;;;5.68;2.20;;;;;;;30.71;68.76;97575.81;4961840;28;20058;-67
2022/08/11 11:36:17;;;;;;;3.83;2.40;;;;;;;30.78;68.92;97580.63;4962676;28;20074;-67
2022/08/11 11:39:14;;;;;;;9.38;2.35;;;;;;;30.83;69.32;97566.44;4953565;28;20517;-69
2022/08/11 11:42:03;;;;;;;8.77;2.55;;;;;;;30.56;69.00;97562.94;4962891;28;20058;-67
2022/08/11 11:44:59;;;;;;;6.45;2.67;;;;;;;30.68;69.21;97559.13;4974735;28;20050;-68
2022/08/11 11:47:38;;;;;;;5.70;2.70;;;;;;;30.58;69.59;97555.06;4953814;28;20418;-68
2022/08/11 11:50:46;;;;;;;8.93;2.40;;;;;;;30.84;69.82;97543.91;4971203;28;20606;-70
2022/08/11 11:53:22;;;;;;;6.35;2.88;;;;;;;30.86;68.78;97535.25;4964776;28;20071;-69
2022/08/11 11:56:19;;;;;;;5.13;2.95;;;;;;;30.94;68.39;97528.63;4935571;28;20505;-71
2022/08/11 12:02:08;;;;;;;6.25;2.20;;;;;;;31.10;67.99;97520.09;4937028;28;20043;-69
2022/08/11 12:04:54;;;;;;;4.60;2.45;;;;;;;30.90;66.88;97527.78;4963789;28;20051;-69
2022/08/11 12:14:24;;;;;;;;;;;;;;;31.10;64.92;97528.41;4988020;28;20078;-69
2022/08/11 12:17:18;;;;;;;7.20;2.15;;;;;;;31.44;63.57;97522.00;4974301;28;19925;-68
2022/08/11 12:20:23;;;;;;;5.75;2.30;;;;;;;31.32;64.08;97521.13;4988423;28;20417;-69
2022/08/11 12:29:54;;;;;;;7.18;2.40;;;;;;;31.37;64.01;97483.91;4969519;28;20058;-70
2022/08/11 12:32:46;;;;;;;6.67;2.10;;;;;;;31.33;65.12;97485.88;4968575;28;20058;-70
2022/08/11 12:35:34;;;;;;;5.63;2.30;;;;;;;31.12;64.71;97472.59;4937271;28;20148;-70
2022/08/11 12:38:43;;;;;;;7.57;2.90;;;;;;;30.86;65.39;97460.44;4955228;28;20150;-70
2022/08/11 12:51:57;;;;;;;6.20;2.75;;;;;;;31.02;63.32;97447.16;4945191;29;20055;-70
2022/08/11 12:54:58;;;;;;;10.00;2.35;;;;;;;31.19;61.82;97450.50;4948035;28;20039;-70
2022/08/11 13:07:20;;;;;;;4.25;1.90;;;;;;;30.79;64.36;97465.91;4978838;28;20133;-70
2022/08/11 13:10:02;;;;;;;5.00;1.97;;;;;;;30.99;64.04;97453.50;4980908;28;20065;-70
2022/08/11 13:13:05;;;;;;;5.65;2.10;;;;;;;30.82;65.41;97456.81;4949017;28;20207;-69
2022/08/11 13:16:04;;;;;;;4.13;1.90;;;;;;;30.51;66.64;97461.59;4943832;28;20133;-70
2022/08/11 13:19:03;;;;;;;5.63;2.13;;;;;;;31.11;65.05;97465.44;4943870;28;20047;-69
2022/08/11 13:21:44;;;;;;;3.30;1.58;;;;;;;30.92;64.94;97475.56;4948668;28;20345;-69
2022/08/11 13:24:41;;;;;;;8.80;1.95;;;;;;;30.77;66.18;97480.13;4972456;28;20066;-70
2022/08/11 13:27:42;;;;;;;6.53;1.52;;;;;;;30.92;65.01;97489.44;4941307;28;20104;-70
2022/08/11 13:33:42;;;;;;;3.50;1.83;;;;;;;31.10;65.37;97510.97;4965452;28;20051;-70
2022/08/11 13:36:42;;;;;;;4.35;1.75;;;;;;;30.78;66.09;97517.72;4967798;28;20126;-70
2022/08/11 13:39:18;;;;;;;4.32;2.30;;;;;;;30.88;65.96;97523.75;4955214;28;20382;-71
2022/08/11 13:42:19;;;;;;;2.28;1.60;;;;;;;31.15;65.26;97532.81;4959461;28;20047;-71
2022/08/11 13:44:57;;;;;;;3.13;1.90;;;;;;;30.60;67.39;97553.50;4930281;29;20051;-72
2022/08/11 13:48:03;;;;;;;5.75;1.80;;;;;;;31.09;66.09;97562.03;4946726;28;20498;-68
2022/08/11 13:53:58;;;;;;;3.28;1.60;;;;;;;30.44;68.25;97609.06;4962717;28;20050;-66
2022/08/11 13:56:45;;;;;;;3.08;1.70;;;;;;;30.74;67.46;97618.56;4964521;28;20051;-70
2022/08/11 13:59:42;;;;;;;3.55;1.80;;;;;;;30.42;68.85;97639.06;4950641;28;20694;-66
2022/08/11 14:02:28;;;;;;;2.92;1.85;;;;;;;30.21;69.17;97658.06;4959067;28;20058;-69
2022/08/11 14:05:35;;;;;;;3.85;1.50;;;;;;;30.13;69.84;97673.75;4943098;29;20389;-65
2022/08/11 14:08:40;;;;;;;6.20;1.77;;;;;;;30.10;69.02;97682.81;4932923;29;20482;-67
2022/08/11 14:15:06;;;;;;;6.05;1.92;;;;;;;30.08;68.54;97715.56;4935899;29;20046;-66
2022/08/11 14:18:03;;;;;;;3.70;1.80;;;;;;;30.10;68.46;97717.97;4932130;29;20058;-66
2022/08/11 14:24:06;;;;;;;2.25;1.52;;;;;;;30.01;67.45;97720.97;4924153;29;20110;-66
2022/08/11 14:27:10;;;;;;;12.02;3.58;;;;;;;29.87;67.60;97715.97;4951251;28;20054;-66
2022/08/11 14:33:41;;;;;;;6.70;3.55;;;;;;;30.22;65.55;97723.31;4966703;28;20352;-67
2022/08/11 14:36:46;;;;;;;13.02;4.30;;;;;;;29.85;68.32;97745.97;4969625;28;20143;-67
2022/08/11 14:39:43;;;;;;;14.00;4.25;;;;;;;29.91;67.62;97754.78;4971707;28;20133;-68
2022/08/11 14:48:53;;;;;;;;;;;;;;;29.82;67.70;97769.63;4951405;28;20049;-69
2022/08/11 14:51:29;;;;;;;2.72;1.80;;;;;;;29.22;69.01;97775.44;4966823;28;20271;-68
2022/08/11 14:57:28;;;;;;;5.10;2.00;;;;;;;29.57;67.68;97787.63;4950252;28;20066;-67
2022/08/11 15:00:38;;;;;;;4.50;2.83;;;;;;;29.60;68.00;97786.94;4966438;28;20061;-67
2022/08/11 15:03:29;;;;;;;5.18;2.85;;;;;;;29.74;66.65;97790.00;4965851;28;20055;-67
2022/08/11 15:06:11;;;;;;;7.85;3.42;;;;;;;29.43;68.13;97791.69;4981199;28;20144;-67
2022/08/11 15:09:02;;;;;;;12.13;5.97;;;;;;;29.20;68.68;97799.09;4985879;28;20146;-68
2022/08/11 15:12:07;;;;;;;9.43;4.88;;;;;;;29.76;66.76;97800.72;4981747;28;20043;-68
2022/08/11 15:18:25;;;;;;;6.85;3.17;;;;;;;29.41;67.68;97823.63;4966713;28;20083;-68
2022/08/11 15:24:19;;;;;;;5.25;3.00;;;;;;;29.61;66.02;97835.50;4965541;28;20121;-68
2022/08/11 15:37:26;;;;;;;3.55;1.40;;;;;;;30.05;65.37;97832.50;4971211;28;20141;-67
2022/08/11 15:46:54;;;;;;;6.57;1.88;;;;;;;29.99;64.40;97825.66;4969422;28;20497;-68
2022/08/11 15:49:40;;;;;;;5.20;1.90;;;;;;;29.96;65.32;97813.38;4969478;28;20085;-68
2022/08/11 15:52:59;;;;;;;4.38;1.60;;;;;;;29.73;65.42;97816.06;4963386;28;20074;-68
2022/08/11 15:55:42;;;;;;;3.97;1.88;;;;;;;29.69;65.75;97817.91;4967050;28;20475;-68
2022/08/11 16:05:21;;;;;;;4.47;1.75;;;;;;;30.07;63.62;97808.03;4942616;28;20536;-67
2022/08/11 16:08:24;;;;;;;8.53;2.00;;;;;;;30.23;63.69;97794.13;4964514;28;20051;-69
2022/08/11 16:11:15;;;;;;;3.22;1.77;;;;;;;30.21;63.80;97791.72;4942036;28;20109;-67
2022/08/11 16:17:09;;;;;;;2.47;1.70;;;;;;;30.03;63.25;97785.03;4968093;28;20537;-69
2022/08/11 16:20:08;;;;;;;3.00;1.55;;;;;;;30.35;62.39;97785.66;4624234;28;10000395;-70
2022/08/11 16:22:46;;;;;;;2.50;1.50;;;;;;;30.38;62.77;97793.25;4965981;28;20549;-70
2022/08/11 16:25:43;;;;;;;3.08;1.73;;;;;;;29.96;63.54;97791.25;4967905;28;20050;-72
2022/08/11 16:28:54;;;;;;;5.80;1.65;;;;;;;30.26;62.49;97785.88;4963075;28;20073;-69
2022/08/11 16:32:15;;;;;;;6.95;1.30;;;;;;;30.51;61.28;97785.53;4973774;28;20042;-69
2022/08/11 16:38:35;;;;;;;4.60;1.50;;;;;;;30.63;61.94;97790.91;4937594;28;20055;-70
2022/08/11 16:47:36;;;;;;;2.85;1.33;;;;;;;30.40;62.50;97793.69;4924203;29;20051;-71
2022/08/11 16:50:52;;;;;;;1.52;1.23;;;;;;;30.77;61.50;97789.53;4935485;28;20047;-70
2022/08/11 16:53:31;;;;;;;5.03;0.98;;;;;;;30.50;61.55;97792.25;4955132;28;20046;-69
2022/08/11 16:56:50;;;;;;;2.50;1.50;;;;;;;30.41;62.31;97800.00;4951055;28;20062;-70
2022/08/11 16:59:44;;;;;;;4.38;1.52;;;;;;;30.39;62.28;97802.34;4940643;28;20408;-71
2022/08/11 17:18:41;;;;;;;3.30;1.50;;;;;;;30.01;63.75;97782.63;4949916;28;20050;-68
2022/08/11 17:24:50;;;;;;;2.33;1.30;;;;;;;30.04;63.50;97772.81;4953665;28;20082;-68
2022/08/11 17:27:34;;;;;;;2.05;1.40;;;;;;;30.20;62.67;97779.03;4950902;28;20047;-68
2022/08/11 17:35:27;;;;;;;4.13;1.70;;;;;;;29.92;63.63;97784.81;4947032;28;20047;-67
2022/08/11 17:36:50;;;;;;;3.72;1.75;;;;;;;30.10;63.35;97785.19;4975786;28;20059;-69
2022/08/11 17:39:30;;;;;;;5.15;1.75;;;;;;;30.01;63.46;97781.84;4978822;28;20057;-70
2022/08/11 17:48:41;;;;;;;5.88;1.75;;;;;;;30.15;63.36;97778.53;4981365;28;20054;-70
2022/08/11 18:00:57;;;;;;;9.43;1.90;;;;;;;30.57;61.93;97756.41;4949619;28;20149;-68
2022/08/11 18:03:52;;;;;;;3.85;1.85;;;;;;;30.60;62.25;97769.47;4949968;28;20550;-68
2022/08/11 18:06:42;;;;;;;5.30;2.03;;;;;;;30.36;62.32;97767.09;4964709;28;20047;-68
